Time;durP1;ratioP1;P1;durP2;ratioP2;P2;SDS_P1;SDS_P2;PMS_P1;PMS_P2;Temp;Humidity;BMP_temperature;BMP_pressure;BME280_temperature;BME280_humidity;BME280_pressure;Samples;Min_cycle;Max_cycle;Signal;HPM_P1;HPM_P2
2024/02/17 00:01:02;;;;;;;9.32;3.78;;;;;;;;;;4912375;29;20074;-81
2024/02/17 00:03:47;;;;;;;9.43;5.05;;;;;;;;;;4908360;29;20032;-82
2024/02/17 00:06:32;;;;;;;11.05;4.90;;;;;;;;;;4909618;29;20071;-81
2024/02/17 00:09:18;;;;;;;9.80;4.30;;;;;;;;;;4910075;29;20119;-81
2024/02/17 00:12:03;;;;;;;11.57;6.15;;;;;;;;;;4911712;29;20027;-81
2024/02/17 00:14:48;;;;;;;10.90;5.18;;;;;;;;;;4897843;29;20027;-81
2024/02/17 00:17:34;;;;;;;10.82;3.88;;;;;;;;;;4901247;29;20095;-80
2024/02/17 00:20:19;;;;;;;9.35;4.22;;;;;;;;;;4901941;29;20095;-80
2024/02/17 00:23:05;;;;;;;7.32;4.22;;;;;;;;;;4904184;29;20039;-82
2024/02/17 00:25:50;;;;;;;14.15;5.05;;;;;;;;;;4904416;29;20038;-83
2024/02/17 00:28:36;;;;;;;9.88;4.10;;;;;;;;;;4888546;29;20035;-83
2024/02/17 00:31:21;;;;;;;7.95;4.00;;;;;;;;;;4907122;29;20099;-83
2024/02/17 00:34:06;;;;;;;8.55;4.90;;;;;;;;;;4910291;29;20032;-84
2024/02/17 00:36:52;;;;;;;11.18;4.07;;;;;;;;;;4899252;29;20020;-85
2024/02/17 00:39:37;;;;;;;6.80;4.35;;;;;;;;;;4904916;29;20023;-82
2024/02/17 00:42:22;;;;;;;5.75;3.55;;;;;;;;;;4898210;29;20047;-82
2024/02/17 00:45:08;;;;;;;7.82;4.07;;;;;;;;;;4910099;29;20106;-82
2024/02/17 00:47:54;;;;;;;8.35;4.18;;;;;;;;;;4911621;29;20062;-84
2024/02/17 00:50:39;;;;;;;7.85;4.28;;;;;;;;;;4908769;29;20028;-82
2024/02/17 00:53:24;;;;;;;8.15;3.53;;;;;;;;;;4909470;29;20036;-82
2024/02/17 00:56:09;;;;;;;7.85;3.95;;;;;;;;;;4903167;29;20123;-82
2024/02/17 00:58:54;;;;;;;11.30;3.75;;;;;;;;;;4916005;29;20078;-82
2024/02/17 01:01:40;;;;;;;11.52;4.45;;;;;;;;;;4900905;29;20032;-82
2024/02/17 01:04:25;;;;;;;8.00;3.80;;;;;;;;;;4909676;29;20032;-83
2024/02/17 01:07:10;;;;;;;9.27;4.22;;;;;;;;;;4908739;29;20773;-83
2024/02/17 01:09:55;;;;;;;13.38;4.88;;;;;;;;;;4907915;29;20063;-83
2024/02/17 01:12:41;;;;;;;6.88;4.07;;;;;;;;;;4908115;29;20099;-82
2024/02/17 01:15:26;;;;;;;10.20;4.45;;;;;;;;;;4905136;29;20036;-82
2024/02/17 01:18:11;;;;;;;9.43;3.83;;;;;;;;;;4912658;29;20078;-82
2024/02/17 01:20:56;;;;;;;9.07;4.63;;;;;;;;;;4913749;29;20039;-81
2024/02/17 01:23:42;;;;;;;7.85;4.07;;;;;;;;;;4915513;29;20031;-82
2024/02/17 01:26:28;;;;;;;9.38;4.25;;;;;;;;;;4902983;29;20032;-82
2024/02/17 01:29:17;;;;;;;6.60;3.47;;;;;;;;;;4898183;29;20035;-83
2024/02/17 01:32:02;;;;;;;6.23;3.87;;;;;;;;;;4915066;29;20034;-82
2024/02/17 01:34:47;;;;;;;8.32;3.47;;;;;;;;;;4905401;29;20036;-81
2024/02/17 01:37:34;;;;;;;6.85;3.97;;;;;;;;;;4906417;29;20122;-83
2024/02/17 01:40:19;;;;;;;7.28;3.58;;;;;;;;;;4914502;29;20032;-83
2024/02/17 01:43:07;;;;;;;8.30;3.58;;;;;;;;;;4911490;29;20043;-82
2024/02/17 01:45:52;;;;;;;9.15;4.30;;;;;;;;;;4913711;29;20023;-82
2024/02/17 01:48:37;;;;;;;9.18;4.18;;;;;;;;;;4928044;29;20039;-82
2024/02/17 01:51:23;;;;;;;12.43;4.20;;;;;;;;;;4926680;29;20024;-82
2024/02/17 01:54:09;;;;;;;8.98;3.88;;;;;;;;;;4932098;29;20024;-81
2024/02/17 01:56:55;;;;;;;7.68;3.92;;;;;;;;;;4908132;29;20114;-82
2024/02/17 01:59:42;;;;;;;11.88;4.43;;;;;;;;;;4914827;29;20040;-82
2024/02/17 02:02:28;;;;;;;7.95;4.25;;;;;;;;;;4914426;29;20039;-82
2024/02/17 02:05:13;;;;;;;6.35;3.75;;;;;;;;;;4902371;29;20051;-82
2024/02/17 02:07:59;;;;;;;7.20;4.18;;;;;;;;;;4914538;29;20106;-82
2024/02/17 02:10:44;;;;;;;7.70;3.70;;;;;;;;;;4913405;29;20031;-82
2024/02/17 02:13:30;;;;;;;8.70;4.40;;;;;;;;;;4899878;29;20044;-81
2024/02/17 02:16:16;;;;;;;5.95;3.80;;;;;;;;;;4911314;29;20023;-81
2024/02/17 02:19:01;;;;;;;8.10;4.32;;;;;;;;;;4903352;29;20024;-81
2024/02/17 02:21:46;;;;;;;8.07;4.15;;;;;;;;;;4902019;29;20643;-81
2024/02/17 02:24:32;;;;;;;8.57;4.18;;;;;;;;;;4910692;29;20036;-81
2024/02/17 02:27:18;;;;;;;11.70;4.60;;;;;;;;;;4899382;29;20098;-82
2024/02/17 02:30:03;;;;;;;6.97;3.40;;;;;;;;;;4911713;29;20040;-81
2024/02/17 02:32:50;;;;;;;4.63;2.40;;;;;;;;;;4904590;29;20511;-81
2024/02/17 02:35:35;;;;;;;7.25;2.00;;;;;;;;;;4925057;29;20036;-81
2024/02/17 02:38:20;;;;;;;3.80;1.83;;;;;;;;;;4908291;29;20035;-81
2024/02/17 02:41:05;;;;;;;2.13;1.73;;;;;;;;;;4893719;29;20541;-81
2024/02/17 02:43:51;;;;;;;4.07;2.67;;;;;;;;;;4920186;29;20028;-81
2024/02/17 02:46:36;;;;;;;4.75;3.10;;;;;;;;;;4900754;29;20040;-81
2024/02/17 02:49:21;;;;;;;6.70;3.70;;;;;;;;;;4906372;29;20079;-83
2024/02/17 02:52:07;;;;;;;5.05;3.33;;;;;;;;;;4905577;29;20032;-82
2024/02/17 02:54:52;;;;;;;6.57;3.78;;;;;;;;;;4915751;29;20031;-82
2024/02/17 02:57:37;;;;;;;8.02;4.15;;;;;;;;;;4896721;29;20020;-82
2024/02/17 03:00:23;;;;;;;7.30;4.72;;;;;;;;;;4912779;29;20032;-82
2024/02/17 03:03:09;;;;;;;7.63;4.47;;;;;;;;;;4890986;29;20096;-83
2024/02/17 03:05:54;;;;;;;8.98;5.25;;;;;;;;;;4913371;29;20095;-82
2024/02/17 03:08:39;;;;;;;8.15;5.10;;;;;;;;;;4906725;29;20039;-83
2024/02/17 03:11:24;;;;;;;7.60;5.20;;;;;;;;;;4912854;29;20024;-81
2024/02/17 03:14:09;;;;;;;7.70;5.15;;;;;;;;;;4913334;29;20135;-81
2024/02/17 03:16:55;;;;;;;8.55;6.22;;;;;;;;;;4914769;29;20074;-82
2024/02/17 03:19:40;;;;;;;10.63;7.03;;;;;;;;;;4908332;29;20032;-82
2024/02/17 03:22:26;;;;;;;10.00;6.75;;;;;;;;;;4903633;29;20035;-82
2024/02/17 03:25:11;;;;;;;10.48;7.22;;;;;;;;;;4906739;29;20036;-82
2024/02/17 03:27:57;;;;;;;11.20;8.10;;;;;;;;;;4911084;29;20056;-82
2024/02/17 03:30:42;;;;;;;11.68;8.52;;;;;;;;;;4900017;29;20032;-81
2024/02/17 03:33:28;;;;;;;12.00;7.70;;;;;;;;;;4908364;29;20021;-82
2024/02/17 03:36:14;;;;;;;13.77;7.63;;;;;;;;;;4906914;29;20035;-83
2024/02/17 03:38:59;;;;;;;12.43;7.53;;;;;;;;;;4911646;29;20031;-82
2024/02/17 03:41:45;;;;;;;13.77;8.52;;;;;;;;;;4913301;29;20074;-83
2024/02/17 03:44:30;;;;;;;10.60;7.75;;;;;;;;;;4915178;29;20027;-82
2024/02/17 03:47:15;;;;;;;11.20;7.75;;;;;;;;;;4911346;29;20039;-81
2024/02/17 03:50:00;;;;;;;12.25;7.43;;;;;;;;;;4907256;29;20028;-81
2024/02/17 03:52:46;;;;;;;11.43;7.65;;;;;;;;;;4908109;29;20066;-81
2024/02/17 03:55:31;;;;;;;9.10;6.50;;;;;;;;;;4914399;29;20131;-82
2024/02/17 03:58:17;;;;;;;11.13;6.65;;;;;;;;;;4927738;29;20031;-82
2024/02/17 04:01:02;;;;;;;8.75;5.90;;;;;;;;;;4903578;29;20046;-82
2024/02/17 04:03:47;;;;;;;12.00;6.70;;;;;;;;;;4901238;29;20043;-82
2024/02/17 04:06:33;;;;;;;10.60;6.68;;;;;;;;;;4913716;29;20112;-81
2024/02/17 04:09:19;;;;;;;11.10;7.15;;;;;;;;;;4905683;29;20062;-82
2024/02/17 04:12:04;;;;;;;9.90;6.57;;;;;;;;;;4904954;29;20094;-81
2024/02/17 04:14:50;;;;;;;11.40;7.20;;;;;;;;;;4907506;29;20091;-83
2024/02/17 04:17:35;;;;;;;10.15;6.43;;;;;;;;;;4901273;29;20091;-81
2024/02/17 04:20:20;;;;;;;9.75;6.53;;;;;;;;;;4912090;29;20062;-82
2024/02/17 04:23:06;;;;;;;10.27;5.95;;;;;;;;;;4916697;29;20020;-82
2024/02/17 04:25:51;;;;;;;9.70;6.28;;;;;;;;;;4922718;29;20031;-82
2024/02/17 04:28:37;;;;;;;10.48;5.82;;;;;;;;;;4906242;29;20099;-82
2024/02/17 04:31:22;;;;;;;7.88;5.00;;;;;;;;;;4906486;29;20035;-83
2024/02/17 04:34:07;;;;;;;8.82;5.07;;;;;;;;;;4911991;29;20062;-83
2024/02/17 04:36:52;;;;;;;8.02;5.20;;;;;;;;;;4899812;29;20111;-82
2024/02/17 04:39:38;;;;;;;9.88;6.28;;;;;;;;;;4892994;29;20028;-82
2024/02/17 04:42:23;;;;;;;9.07;6.28;;;;;;;;;;4906093;29;20020;-81
2024/02/17 04:45:09;;;;;;;9.50;5.75;;;;;;;;;;4900088;29;20111;-82
2024/02/17 04:47:54;;;;;;;9.73;5.38;;;;;;;;;;4903029;29;20035;-82
2024/02/17 04:50:39;;;;;;;7.78;3.85;;;;;;;;;;4897617;29;20043;-82
2024/02/17 04:53:25;;;;;;;7.00;3.92;;;;;;;;;;4925365;29;20090;-82
2024/02/17 04:56:10;;;;;;;5.63;3.67;;;;;;;;;;4905444;29;20110;-82
2024/02/17 04:58:55;;;;;;;7.25;4.32;;;;;;;;;;4909288;29;20419;-82
2024/02/17 05:01:44;;;;;;;7.25;4.13;;;;;;;;;;4913783;29;20051;-84
2024/02/17 05:04:29;;;;;;;7.77;5.07;;;;;;;;;;4900704;29;20064;-82
2024/02/17 05:07:15;;;;;;;10.15;6.00;;;;;;;;;;4901416;29;20043;-82
2024/02/17 05:10:01;;;;;;;9.07;6.07;;;;;;;;;;4913721;29;20040;-82
2024/02/17 05:12:48;;;;;;;13.38;7.53;;;;;;;;;;4908635;29;20044;-81
2024/02/17 05:15:34;;;;;;;10.48;6.70;;;;;;;;;;4903581;29;20028;-82
2024/02/17 05:18:19;;;;;;;14.60;8.40;;;;;;;;;;4922200;29;20039;-84
2024/02/17 05:21:04;;;;;;;12.38;8.85;;;;;;;;;;4902494;29;20146;-81
2024/02/17 05:23:49;;;;;;;14.18;9.02;;;;;;;;;;4906706;29;20245;-83
2024/02/17 05:26:35;;;;;;;13.95;9.07;;;;;;;;;;4901050;29;20044;-83
2024/02/17 05:29:20;;;;;;;13.77;9.38;;;;;;;;;;4910594;29;20027;-83
2024/02/17 05:32:06;;;;;;;17.10;10.70;;;;;;;;;;4902145;29;20031;-83
2024/02/17 05:34:52;;;;;;;15.15;9.30;;;;;;;;;;4902648;29;20031;-83
2024/02/17 05:37:37;;;;;;;14.27;10.02;;;;;;;;;;4913797;29;20059;-83
2024/02/17 05:40:23;;;;;;;14.02;9.68;;;;;;;;;;4909569;29;20094;-82
2024/02/17 05:43:08;;;;;;;15.13;10.88;;;;;;;;;;4927625;29;20039;-83
2024/02/17 05:45:53;;;;;;;17.88;11.85;;;;;;;;;;4912222;29;20035;-82
2024/02/17 05:48:39;;;;;;;14.55;10.32;;;;;;;;;;4903540;29;20028;-83
2024/02/17 05:51:24;;;;;;;15.73;10.38;;;;;;;;;;4888502;29;20128;-82
2024/02/17 05:54:10;;;;;;;17.05;11.13;;;;;;;;;;4919776;29;20028;-83
2024/02/17 05:56:55;;;;;;;15.15;10.63;;;;;;;;;;4903141;29;20091;-83
2024/02/17 05:59:40;;;;;;;16.33;10.85;;;;;;;;;;4911960;29;20024;-83
2024/02/17 06:02:26;;;;;;;14.75;10.13;;;;;;;;;;4891813;29;20134;-82
2024/02/17 06:05:11;;;;;;;19.55;12.38;;;;;;;;;;4904904;29;20036;-82
2024/02/17 06:07:56;;;;;;;20.02;11.68;;;;;;;;;;4914449;29;20039;-83
2024/02/17 06:10:42;;;;;;;16.23;10.63;;;;;;;;;;4911434;29;20497;-82
2024/02/17 06:13:28;;;;;;;16.95;12.60;;;;;;;;;;4903580;29;20072;-82
2024/02/17 06:16:14;;;;;;;19.38;13.45;;;;;;;;;;4911873;29;20023;-81
2024/02/17 06:22:03;;;;;;;17.40;10.68;;;;;;;;;;4923483;29;20130;-82
2024/02/17 06:24:48;;;;;;;18.52;13.05;;;;;;;;;;4900926;29;20048;-82
2024/02/17 06:27:34;;;;;;;18.83;13.77;;;;;;;;;;4899298;29;20047;-81
2024/02/17 06:30:19;;;;;;;15.35;10.93;;;;;;;;;;4908152;29;20032;-81
2024/02/17 06:33:04;;;;;;;18.70;12.35;;;;;;;;;;4900469;29;20032;-82
2024/02/17 06:35:50;;;;;;;17.70;10.38;;;;;;;;;;4902067;29;20032;-83
2024/02/17 06:38:35;;;;;;;18.13;12.05;;;;;;;;;;4912547;29;20032;-82
2024/02/17 06:41:21;;;;;;;16.60;10.88;;;;;;;;;;4914070;29;20035;-83
2024/02/17 06:44:06;;;;;;;19.02;11.95;;;;;;;;;;4921010;29;20364;-83
2024/02/17 06:46:53;;;;;;;15.18;11.20;;;;;;;;;;4904213;29;20086;-83
2024/02/17 06:49:38;;;;;;;17.83;11.88;;;;;;;;;;4907974;29;20028;-83
2024/02/17 06:52:24;;;;;;;17.35;10.77;;;;;;;;;;4904133;29;20039;-82
2024/02/17 06:55:09;;;;;;;16.60;11.38;;;;;;;;;;4901094;29;20035;-83
2024/02/17 06:57:54;;;;;;;18.25;11.57;;;;;;;;;;4907555;29;20067;-83
2024/02/17 07:00:39;;;;;;;17.63;11.88;;;;;;;;;;4898514;29;20067;-84
2024/02/17 07:03:25;;;;;;;17.60;12.23;;;;;;;;;;4906878;29;20024;-83
2024/02/17 07:06:16;;;;;;;17.58;12.40;;;;;;;;;;4907085;29;20019;-83
2024/02/17 07:09:01;;;;;;;20.77;12.80;;;;;;;;;;4907918;29;20045;-83
2024/02/17 07:11:46;;;;;;;20.13;13.57;;;;;;;;;;4901160;29;20028;-83
2024/02/17 07:14:32;;;;;;;22.10;15.18;;;;;;;;;;4893592;29;20063;-82
2024/02/17 07:17:18;;;;;;;29.48;13.48;;;;;;;;;;4887469;29;20024;-83
2024/02/17 07:20:04;;;;;;;20.85;13.75;;;;;;;;;;4890970;29;20036;-83
2024/02/17 07:22:49;;;;;;;18.92;12.85;;;;;;;;;;4888013;29;20092;-83
2024/02/17 07:25:35;;;;;;;17.10;11.98;;;;;;;;;;4887232;29;20024;-82
2024/02/17 07:28:20;;;;;;;20.15;12.70;;;;;;;;;;4884597;29;20080;-82
2024/02/17 07:31:06;;;;;;;18.30;12.63;;;;;;;;;;4882089;29;20028;-81
2024/02/17 07:33:52;;;;;;;16.88;12.27;;;;;;;;;;4875846;29;20021;-81
2024/02/17 07:36:38;;;;;;;19.70;12.35;;;;;;;;;;4889232;29;20055;-81
2024/02/17 07:39:24;;;;;;;16.42;11.40;;;;;;;;;;4895241;29;20043;-81
2024/02/17 07:42:10;;;;;;;15.85;10.73;;;;;;;;;;4887038;29;20039;-81
2024/02/17 07:44:56;;;;;;;17.00;11.25;;;;;;;;;;4890424;29;20038;-82
2024/02/17 07:47:41;;;;;;;19.30;11.50;;;;;;;;;;4893843;29;20024;-82
2024/02/17 07:50:26;;;;;;;17.67;11.05;;;;;;;;;;4903655;29;20071;-82
2024/02/17 07:53:12;;;;;;;18.17;12.13;;;;;;;;;;4885837;29;20570;-80
2024/02/17 07:55:57;;;;;;;15.48;10.85;;;;;;;;;;4892492;29;20111;-82
2024/02/17 07:58:42;;;;;;;17.52;11.30;;;;;;;;;;4882762;29;20494;-82
2024/02/17 08:01:27;;;;;;;15.60;10.10;;;;;;;;;;4886206;29;20167;-81
2024/02/17 08:04:13;;;;;;;15.25;10.65;;;;;;;;;;4876348;29;20042;-83
2024/02/17 08:06:58;;;;;;;14.63;9.77;;;;;;;;;;4875997;29;20512;-81
2024/02/17 08:09:43;;;;;;;15.57;10.50;;;;;;;;;;4870730;29;20024;-84
2024/02/17 08:12:28;;;;;;;16.90;10.80;;;;;;;;;;4900662;29;20106;-84
2024/02/17 08:15:14;;;;;;;15.43;10.15;;;;;;;;;;4905823;29;20032;-84
2024/02/17 08:17:59;;;;;;;14.73;10.23;;;;;;;;;;4901106;29;20603;-82
2024/02/17 08:20:46;;;;;;;18.33;11.27;;;;;;;;;;4902724;29;20028;-82
2024/02/17 08:23:31;;;;;;;16.40;11.18;;;;;;;;;;4895224;29;20505;-82
2024/02/17 08:26:17;;;;;;;16.13;10.43;;;;;;;;;;4904338;29;20020;-80
2024/02/17 08:29:02;;;;;;;19.70;11.50;;;;;;;;;;4912703;29;20383;-80
2024/02/17 08:31:49;;;;;;;20.63;11.95;;;;;;;;;;4909754;29;20237;-82
2024/02/17 08:34:34;;;;;;;17.80;12.65;;;;;;;;;;4897249;29;20031;-80
2024/02/17 08:37:19;;;;;;;16.55;11.50;;;;;;;;;;4899338;29;20024;-80
2024/02/17 08:40:05;;;;;;;20.42;13.80;;;;;;;;;;4898778;29;20047;-81
2024/02/17 08:42:50;;;;;;;19.05;13.48;;;;;;;;;;4901912;29;20036;-79
2024/02/17 08:45:35;;;;;;;19.85;13.00;;;;;;;;;;4903299;29;20031;-84
2024/02/17 08:48:20;;;;;;;20.42;13.75;;;;;;;;;;4914602;29;20555;-84
2024/02/17 08:51:06;;;;;;;19.67;13.50;;;;;;;;;;4905270;29;20142;-86
2024/02/17 08:53:52;;;;;;;18.55;11.75;;;;;;;;;;4898292;29;20080;-85
2024/02/17 08:56:38;;;;;;;17.70;11.75;;;;;;;;;;4914394;29;20110;-86
2024/02/17 08:59:23;;;;;;;19.17;13.93;;;;;;;;;;4911733;29;20031;-86
2024/02/17 09:02:08;;;;;;;18.48;12.18;;;;;;;;;;4904624;29;20147;-83
2024/02/17 09:04:54;;;;;;;18.40;11.32;;;;;;;;;;4891108;29;20095;-86
2024/02/17 09:07:39;;;;;;;19.05;13.13;;;;;;;;;;4915220;29;20032;-84
2024/02/17 09:10:24;;;;;;;17.23;12.32;;;;;;;;;;4904420;29;20035;-84
2024/02/17 09:13:09;;;;;;;16.33;11.60;;;;;;;;;;4892137;29;20047;-85
2024/02/17 09:15:55;;;;;;;16.10;11.57;;;;;;;;;;4900451;29;20023;-86
2024/02/17 09:18:40;;;;;;;15.25;11.07;;;;;;;;;;4893648;29;20028;-87
2024/02/17 09:21:25;;;;;;;19.38;10.88;;;;;;;;;;4912554;29;20032;-84
2024/02/17 09:24:10;;;;;;;17.60;11.18;;;;;;;;;;4908795;29;20043;-87
2024/02/17 09:26:57;;;;;;;13.85;9.43;;;;;;;;;;4908716;29;20032;-81
2024/02/17 09:29:51;;;;;;;12.77;9.48;;;;;;;;;;4896500;29;20024;-93
2024/02/17 09:32:37;;;;;;;14.50;8.15;;;;;;;;;;4917758;29;20130;-90
2024/02/17 09:35:22;;;;;;;12.68;8.25;;;;;;;;;;4902179;29;20059;-93
2024/02/17 09:41:32;;;;;;;12.32;7.15;;;;;;;;;;4875998;29;20067;-92
2024/02/17 09:51:32;;;;;;;11.85;8.23;;;;;;;;;;4857935;29;20152;-92
2024/02/17 09:54:21;;;;;;;13.75;8.15;;;;;;;;;;4935325;29;20087;-85
2024/02/17 09:57:07;;;;;;;13.68;7.95;;;;;;;;;;4921107;29;20044;-84
2024/02/17 09:59:56;;;;;;;9.85;6.85;;;;;;;;;;4927537;29;20023;-86
2024/02/17 10:02:42;;;;;;;13.52;8.10;;;;;;;;;;4933823;29;20013;-90
2024/02/17 10:05:28;;;;;;;17.27;8.80;;;;;;;;;;4912480;29;20043;-84
2024/02/17 10:08:13;;;;;;;13.10;8.40;;;;;;;;;;4918235;29;20043;-86
2024/02/17 10:10:59;;;;;;;13.52;8.38;;;;;;;;;;4916221;29;20159;-90
2024/02/17 10:13:57;;;;;;;13.65;8.68;;;;;;;;;;4908522;29;20042;-81
2024/02/17 10:16:42;;;;;;;13.65;8.18;;;;;;;;;;4908873;29;20035;-88
2024/02/17 10:19:30;;;;;;;13.98;8.35;;;;;;;;;;4907670;29;20104;-89
2024/02/17 10:22:17;;;;;;;11.45;8.13;;;;;;;;;;4904123;29;20115;-87
2024/02/17 10:25:02;;;;;;;13.63;8.45;;;;;;;;;;4920980;29;21514;-83
2024/02/17 10:27:51;;;;;;;11.27;7.03;;;;;;;;;;4899837;29;20558;-89
2024/02/17 10:30:37;;;;;;;11.15;7.97;;;;;;;;;;4913832;29;20075;-89
2024/02/17 10:33:25;;;;;;;16.40;8.32;;;;;;;;;;4914501;29;20024;-81
2024/02/17 10:36:12;;;;;;;13.15;7.35;;;;;;;;;;4921978;29;20024;-84
2024/02/17 10:39:00;;;;;;;12.02;7.00;;;;;;;;;;4911870;29;20026;-79
2024/02/17 10:41:46;;;;;;;10.75;6.70;;;;;;;;;;4910981;29;20110;-83
2024/02/17 10:44:31;;;;;;;10.30;7.00;;;;;;;;;;4926426;29;20036;-80
2024/02/17 10:47:18;;;;;;;9.43;6.00;;;;;;;;;;4908622;29;20024;-84
2024/02/17 10:50:14;;;;;;;10.73;5.95;;;;;;;;;;4906985;29;20031;-84
2024/02/17 10:53:06;;;;;;;12.68;6.60;;;;;;;;;;4903420;29;20091;-86
2024/02/17 10:55:53;;;;;;;12.85;6.70;;;;;;;;;;4902321;29;20671;-85
2024/02/17 10:58:40;;;;;;;9.88;5.47;;;;;;;;;;4908617;29;20074;-83
2024/02/17 11:01:27;;;;;;;14.57;5.50;;;;;;;;;;4899040;29;20384;-85
2024/02/17 11:04:12;;;;;;;10.15;6.32;;;;;;;;;;4908073;29;20083;-88
2024/02/17 11:06:58;;;;;;;9.55;6.05;;;;;;;;;;4905536;29;20020;-86
2024/02/17 11:09:46;;;;;;;10.80;5.65;;;;;;;;;;4917548;29;20173;-87
2024/02/17 11:12:35;;;;;;;8.65;5.85;;;;;;;;;;4913478;29;20059;-93
2024/02/17 11:15:25;;;;;;;9.32;5.82;;;;;;;;;;4909421;29;20379;-89
2024/02/17 11:18:10;;;;;;;10.13;4.95;;;;;;;;;;4922944;29;20028;-88
2024/02/17 11:20:56;;;;;;;7.38;4.43;;;;;;;;;;4909828;29;20600;-87
2024/02/17 11:23:41;;;;;;;11.57;5.38;;;;;;;;;;4913329;29;20035;-87
2024/02/17 11:26:27;;;;;;;8.63;5.70;;;;;;;;;;4904201;29;20096;-90
2024/02/17 11:29:28;;;;;;;8.85;4.55;;;;;;;;;;4911353;29;20026;-87
2024/02/17 11:32:14;;;;;;;11.23;5.88;;;;;;;;;;4900543;29;20039;-91
2024/02/17 11:35:00;;;;;;;9.70;5.93;;;;;;;;;;4915749;29;20043;-90
2024/02/17 11:37:46;;;;;;;10.32;5.32;;;;;;;;;;4893002;29;20574;-91
2024/02/17 11:40:31;;;;;;;10.02;5.70;;;;;;;;;;4898221;29;20067;-89
2024/02/17 11:43:18;;;;;;;8.57;4.82;;;;;;;;;;4917579;29;20114;-90
2024/02/17 11:46:04;;;;;;;9.85;5.80;;;;;;;;;;4913646;29;20036;-89
2024/02/17 11:48:50;;;;;;;7.93;5.13;;;;;;;;;;4908025;29;20115;-87
2024/02/17 11:51:35;;;;;;;6.43;4.70;;;;;;;;;;4913805;29;20126;-88
2024/02/17 11:54:21;;;;;;;8.80;5.47;;;;;;;;;;4913593;29;20036;-89
2024/02/17 11:57:07;;;;;;;8.45;5.55;;;;;;;;;;4911283;29;20024;-89
2024/02/17 11:59:53;;;;;;;9.73;5.55;;;;;;;;;;4922294;29;20039;-89
2024/02/17 12:02:40;;;;;;;8.02;5.25;;;;;;;;;;4910403;29;20038;-90
2024/02/17 12:05:27;;;;;;;7.57;5.00;;;;;;;;;;4902149;29;20417;-90
2024/02/17 12:08:16;;;;;;;9.20;4.68;;;;;;;;;;4903654;29;20024;-83
2024/02/17 12:11:02;;;;;;;9.27;5.50;;;;;;;;;;4909824;29;20059;-88
2024/02/17 12:13:48;;;;;;;8.65;4.35;;;;;;;;;;4924078;29;20043;-84
2024/02/17 12:16:33;;;;;;;6.78;4.15;;;;;;;;;;4922971;29;20035;-82
2024/02/17 12:19:18;;;;;;;9.15;3.97;;;;;;;;;;4916098;29;20024;-89
2024/02/17 12:22:06;;;;;;;7.57;3.65;;;;;;;;;;4920714;29;22269;-88
2024/02/17 12:24:51;;;;;;;6.68;2.85;;;;;;;;;;4922968;29;20031;-89
2024/02/17 12:27:37;;;;;;;4.75;2.55;;;;;;;;;;4910049;29;20020;-87
2024/02/17 12:30:24;;;;;;;6.32;3.67;;;;;;;;;;4929783;29;20056;-89
2024/02/17 12:33:09;;;;;;;9.07;3.55;;;;;;;;;;4927619;29;20028;-89
2024/02/17 12:35:55;;;;;;;7.10;3.78;;;;;;;;;;4927152;29;20024;-88
2024/02/17 12:38:40;;;;;;;9.05;4.45;;;;;;;;;;4919640;29;20028;-88
2024/02/17 12:41:26;;;;;;;7.60;3.80;;;;;;;;;;4954363;29;20036;-88
2024/02/17 12:44:14;;;;;;;9.95;3.85;;;;;;;;;;4917584;29;20117;-88
2024/02/17 12:47:00;;;;;;;7.18;3.63;;;;;;;;;;4932851;29;20407;-89
2024/02/17 12:49:45;;;;;;;6.70;3.72;;;;;;;;;;4944289;29;20040;-89
2024/02/17 12:52:31;;;;;;;7.90;3.80;;;;;;;;;;4945039;29;20020;-89
2024/02/17 12:55:16;;;;;;;8.27;4.15;;;;;;;;;;4922918;29;20046;-88
2024/02/17 12:58:02;;;;;;;5.47;3.08;;;;;;;;;;4921602;29;20021;-89
2024/02/17 13:00:47;;;;;;;4.75;2.88;;;;;;;;;;4917991;29;20034;-89
2024/02/17 13:03:37;;;;;;;3.65;2.10;;;;;;;;;;4911887;29;20043;-88
2024/02/17 13:06:24;;;;;;;3.08;2.15;;;;;;;;;;4916410;29;20032;-88
2024/02/17 13:09:09;;;;;;;6.13;2.20;;;;;;;;;;4917392;29;20040;-88
2024/02/17 13:11:55;;;;;;;4.85;2.95;;;;;;;;;;4910136;29;20039;-88
2024/02/17 13:14:40;;;;;;;6.85;2.30;;;;;;;;;;4914879;29;20110;-88
2024/02/17 13:17:26;;;;;;;8.18;2.85;;;;;;;;;;4908177;29;20115;-88
2024/02/17 13:20:11;;;;;;;3.97;2.60;;;;;;;;;;4904277;29;20515;-88
2024/02/17 13:22:56;;;;;;;5.38;2.40;;;;;;;;;;4911588;29;20071;-87
2024/02/17 13:25:42;;;;;;;5.97;2.45;;;;;;;;;;4914175;29;20024;-88
2024/02/17 13:28:27;;;;;;;4.18;2.17;;;;;;;;;;4903930;29;20099;-88
2024/02/17 13:31:17;;;;;;;5.65;2.60;;;;;;;;;;4912003;29;20036;-88
2024/02/17 13:34:02;;;;;;;5.35;2.28;;;;;;;;;;4916502;29;20206;-88
2024/02/17 13:36:49;;;;;;;3.80;2.40;;;;;;;;;;4906330;29;20469;-86
2024/02/17 13:39:34;;;;;;;4.78;2.72;;;;;;;;;;4900215;29;20028;-86
2024/02/17 13:42:19;;;;;;;4.72;2.92;;;;;;;;;;4906252;29;20092;-86
2024/02/17 13:45:05;;;;;;;3.67;2.33;;;;;;;;;;4901164;29;20032;-86
2024/02/17 13:47:50;;;;;;;4.40;2.75;;;;;;;;;;4900198;29;20530;-86
2024/02/17 13:50:36;;;;;;;4.65;2.40;;;;;;;;;;4912370;29;20036;-86
2024/02/17 13:53:22;;;;;;;7.43;2.95;;;;;;;;;;4910421;29;20054;-86
2024/02/17 13:56:07;;;;;;;9.00;3.42;;;;;;;;;;4896456;29;20038;-88
2024/02/17 13:58:53;;;;;;;5.63;2.50;;;;;;;;;;4907234;29;20027;-88
2024/02/17 14:01:39;;;;;;;8.15;3.08;;;;;;;;;;4902368;29;20036;-88
2024/02/17 14:04:24;;;;;;;4.70;2.35;;;;;;;;;;4905590;29;20119;-87
2024/02/17 14:07:09;;;;;;;5.10;2.55;;;;;;;;;;4894123;29;20064;-85
2024/02/17 14:09:55;;;;;;;4.57;2.60;;;;;;;;;;4904451;29;20090;-86
2024/02/17 14:12:40;;;;;;;5.57;2.15;;;;;;;;;;4903581;29;20052;-86
2024/02/17 14:15:25;;;;;;;2.65;1.83;;;;;;;;;;4908474;29;20452;-86
2024/02/17 14:18:11;;;;;;;4.78;2.25;;;;;;;;;;4899129;29;20028;-87
2024/02/17 14:20:59;;;;;;;3.30;1.92;;;;;;;;;;4917570;29;20035;-88
2024/02/17 14:23:49;;;;;;;5.13;1.80;;;;;;;;;;4910257;29;20538;-88
2024/02/17 14:26:35;;;;;;;5.07;2.08;;;;;;;;;;4909235;29;20031;-90
2024/02/17 14:29:21;;;;;;;9.73;3.28;;;;;;;;;;4910294;29;20028;-87
2024/02/17 14:32:06;;;;;;;4.53;1.60;;;;;;;;;;4908760;29;20035;-83
2024/02/17 14:34:52;;;;;;;4.10;2.08;;;;;;;;;;4898964;29;20100;-84
2024/02/17 14:37:40;;;;;;;3.55;1.95;;;;;;;;;;4901573;29;20023;-84
2024/02/17 14:40:25;;;;;;;2.92;2.08;;;;;;;;;;4904608;29;20032;-82
2024/02/17 14:43:10;;;;;;;3.40;1.90;;;;;;;;;;4908658;29;20028;-82
2024/02/17 14:45:55;;;;;;;8.20;2.65;;;;;;;;;;4891656;29;20103;-83
2024/02/17 14:48:41;;;;;;;4.35;1.63;;;;;;;;;;4919625;29;20031;-83
2024/02/17 14:51:27;;;;;;;4.03;2.38;;;;;;;;;;4907348;29;20031;-83
2024/02/17 14:54:12;;;;;;;3.63;2.17;;;;;;;;;;4909895;29;20031;-84
2024/02/17 14:56:57;;;;;;;5.13;2.70;;;;;;;;;;4902136;29;20032;-83
2024/02/17 14:59:43;;;;;;;4.40;1.98;;;;;;;;;;4904547;29;20111;-83
2024/02/17 15:02:28;;;;;;;4.57;2.47;;;;;;;;;;4910449;29;20036;-85
2024/02/17 15:05:13;;;;;;;4.57;2.00;;;;;;;;;;4900479;29;20036;-85
2024/02/17 15:07:59;;;;;;;6.70;1.90;;;;;;;;;;4891574;29;20028;-85
2024/02/17 15:10:44;;;;;;;4.18;2.17;;;;;;;;;;4902246;29;20123;-85
2024/02/17 15:13:30;;;;;;;7.07;3.05;;;;;;;;;;4904471;29;20058;-86
2024/02/17 15:16:15;;;;;;;3.60;2.20;;;;;;;;;;4904708;29;20027;-84
2024/02/17 15:19:01;;;;;;;7.00;2.40;;;;;;;;;;4904090;29;20031;-86
2024/02/17 15:21:46;;;;;;;5.25;2.33;;;;;;;;;;4915667;29;20035;-85
2024/02/17 15:24:31;;;;;;;6.18;2.33;;;;;;;;;;4897137;29;20032;-84
2024/02/17 15:27:17;;;;;;;6.75;2.58;;;;;;;;;;4898592;29;20036;-85
2024/02/17 15:30:03;;;;;;;8.68;2.30;;;;;;;;;;4907699;29;20024;-87
2024/02/17 15:32:48;;;;;;;3.45;2.20;;;;;;;;;;4910138;29;20051;-86
2024/02/17 15:35:38;;;;;;;5.82;2.13;;;;;;;;;;4891654;29;20067;-84
2024/02/17 15:38:25;;;;;;;5.30;2.10;;;;;;;;;;4897156;29;20399;-84
2024/02/17 15:41:10;;;;;;;2.33;1.75;;;;;;;;;;4913089;29;20024;-82
2024/02/17 15:43:55;;;;;;;4.30;2.10;;;;;;;;;;4898812;29;20032;-84
2024/02/17 15:46:41;;;;;;;7.50;2.03;;;;;;;;;;4896794;29;20461;-83
2024/02/17 15:49:27;;;;;;;3.60;2.08;;;;;;;;;;4903845;29;20020;-83
2024/02/17 15:52:12;;;;;;;6.07;2.28;;;;;;;;;;4903485;29;20055;-84
2024/02/17 15:54:58;;;;;;;3.95;2.15;;;;;;;;;;4908632;29;20455;-82
2024/02/17 15:57:43;;;;;;;7.03;2.90;;;;;;;;;;4903839;29;20131;-82
2024/02/17 16:00:29;;;;;;;3.45;2.10;;;;;;;;;;4906347;29;20059;-82
2024/02/17 16:03:14;;;;;;;4.80;2.40;;;;;;;;;;4904891;29;20096;-83
2024/02/17 16:06:04;;;;;;;5.15;2.67;;;;;;;;;;4900662;29;20083;-83
2024/02/17 16:08:50;;;;;;;3.67;2.42;;;;;;;;;;4893967;29;20535;-83
2024/02/17 16:11:36;;;;;;;4.57;2.70;;;;;;;;;;4902497;29;20044;-81
2024/02/17 16:14:21;;;;;;;3.83;2.10;;;;;;;;;;4915356;29;20062;-83
2024/02/17 16:17:06;;;;;;;4.60;2.35;;;;;;;;;;4917769;29;20024;-83
2024/02/17 16:19:51;;;;;;;6.43;2.50;;;;;;;;;;4904398;29;20079;-83
2024/02/17 16:22:40;;;;;;;7.38;3.65;;;;;;;;;;4900778;29;20064;-81
2024/02/17 16:25:25;;;;;;;4.53;2.45;;;;;;;;;;4908050;29;20038;-82
2024/02/17 16:28:11;;;;;;;5.38;3.08;;;;;;;;;;4897319;29;20036;-82
2024/02/17 16:30:56;;;;;;;5.22;2.00;;;;;;;;;;4895020;29;20032;-81
2024/02/17 16:33:44;;;;;;;4.80;2.60;;;;;;;;;;4895929;29;20162;-81
2024/02/17 16:36:29;;;;;;;4.13;1.80;;;;;;;;;;4903923;29;20028;-83